createdAt,value
2023-01-07T00:00:30.960Z,100412.59
2023-01-07T00:05:32.354Z,100408.06
2023-01-07T00:10:34.616Z,100407.56
2023-01-07T00:15:36.008Z,100422.31
2023-01-07T00:20:37.423Z,100406.03
2023-01-07T00:25:38.821Z,100403.56
2023-01-07T00:30:40.202Z,100406.28
2023-01-07T00:35:44.557Z,100397.97
2023-01-07T00:40:45.930Z,100396.41
2023-01-07T00:45:47.316Z,100387.00
2023-01-07T00:50:48.800Z,100383.72
2023-01-07T00:55:52.805Z,100391.19
2023-01-07T01:00:56.151Z,100386.34
2023-01-07T01:06:04.821Z,100391.66
2023-01-07T01:11:06.853Z,100388.44
2023-01-07T01:16:13.193Z,100395.81
2023-01-07T01:21:15.700Z,100395.22
2023-01-07T01:26:17.146Z,100400.59
2023-01-07T01:31:18.539Z,100393.47
2023-01-07T01:36:19.943Z,100392.75
2023-01-07T01:41:21.379Z,100385.47
2023-01-07T01:46:38.291Z,100391.63
2023-01-07T01:51:40.835Z,100401.16
2023-01-07T01:56:43.491Z,100390.72
2023-01-07T02:01:45.036Z,100381.47
2023-01-07T02:06:53.391Z,100388.34
2023-01-07T02:11:54.656Z,100378.81
2023-01-07T02:17:19.226Z,100372.38
2023-01-07T02:22:47.215Z,100373.59
2023-01-07T02:28:10.257Z,100362.56
2023-01-07T02:33:21.228Z,100346.41
2023-01-07T02:39:02.826Z,100352.94
2023-01-07T02:44:12.719Z,100343.66
2023-01-07T02:49:15.417Z,100338.91
2023-01-07T02:54:22.126Z,100346.75
2023-01-07T02:59:56.868Z,100342.25
2023-01-07T03:05:04.886Z,100337.25
2023-01-07T03:10:27.510Z,100340.72
2023-01-07T03:15:53.294Z,100351.28
2023-01-07T03:20:57.710Z,100353.66
2023-01-07T03:26:01.135Z,100352.13
2023-01-07T03:31:02.514Z,100358.28
2023-01-07T03:36:03.975Z,100352.91
2023-01-07T03:41:05.415Z,100348.75
2023-01-07T03:46:06.851Z,100351.63
2023-01-07T03:51:08.299Z,100340.84
2023-01-07T03:56:09.694Z,100345.69
2023-01-07T04:01:11.213Z,100345.34
2023-01-07T04:06:12.632Z,100341.66
2023-01-07T04:11:13.998Z,100324.53
2023-01-07T04:16:15.478Z,100328.00
2023-01-07T04:21:16.870Z,100321.91
2023-01-07T04:26:18.278Z,100329.16
2023-01-07T04:31:19.655Z,100310.50
2023-01-07T04:36:21.054Z,100310.03
2023-01-07T04:41:22.455Z,100302.09
2023-01-07T04:46:25.075Z,100308.50
2023-01-07T04:51:26.491Z,100309.19
2023-01-07T04:56:27.924Z,100305.50
2023-01-07T05:01:32.214Z,100310.03
2023-01-07T05:06:33.659Z,100318.13
2023-01-07T05:11:35.047Z,100305.31
2023-01-07T05:16:36.483Z,100292.81
2023-01-07T05:21:38.008Z,100298.75
2023-01-07T05:26:39.407Z,100291.75
2023-01-07T05:31:41.123Z,100288.06
2023-01-07T05:36:42.529Z,100276.78
2023-01-07T05:41:43.916Z,100286.28
2023-01-07T05:46:45.298Z,100289.50
2023-01-07T05:51:46.723Z,100280.59
2023-01-07T05:56:48.123Z,100293.53
2023-01-07T06:01:49.531Z,100286.41
2023-01-07T06:06:50.927Z,100285.91
2023-01-07T06:11:52.311Z,100295.19
2023-01-07T06:16:53.768Z,100290.31
2023-01-07T06:21:55.150Z,100298.75
2023-01-07T06:26:56.560Z,100287.72
2023-01-07T06:31:58.178Z,100289.28
2023-01-07T06:36:59.666Z,100292.22
2023-01-07T06:42:01.060Z,100296.63
2023-01-07T06:47:02.475Z,100296.50
2023-01-07T06:52:03.955Z,100296.28
2023-01-07T06:57:05.393Z,100298.06
2023-01-07T07:02:06.938Z,100294.13
2023-01-07T07:07:08.338Z,100299.56
2023-01-07T07:12:09.853Z,100311.25
2023-01-07T07:17:11.305Z,100307.19
2023-01-07T07:22:12.689Z,100310.66
2023-01-07T07:27:14.153Z,100313.13
2023-01-07T07:32:15.548Z,100309.19
2023-01-07T07:37:16.944Z,100312.41
2023-01-07T07:42:18.318Z,100307.41
2023-01-07T07:47:19.690Z,100306.72
2023-01-07T07:52:21.075Z,100307.19
2023-01-07T07:57:22.492Z,100298.06
2023-01-07T08:02:23.883Z,100301.50
2023-01-07T08:07:32.506Z,100295.69
2023-01-07T08:12:38.706Z,100289.28
2023-01-07T08:17:40.139Z,100295.19
2023-01-07T08:22:41.566Z,100301.38
2023-01-07T08:27:42.945Z,100300.44
2023-01-07T08:32:44.327Z,100306.84
2023-01-07T08:37:45.727Z,100302.94
2023-01-07T08:42:47.104Z,100301.84
2023-01-07T08:47:48.537Z,100301.50
2023-01-07T08:52:49.913Z,100298.75
2023-01-07T08:57:53.865Z,100294.25
2023-01-07T09:02:55.272Z,100294.59
2023-01-07T09:07:57.452Z,100283.34
2023-01-07T09:12:58.834Z,100283.44
2023-01-07T09:18:03.368Z,100286.41
2023-01-07T09:23:04.779Z,100281.53
2023-01-07T09:28:06.178Z,100278.81
2023-01-07T09:33:07.558Z,100270.84
2023-01-07T09:38:08.942Z,100273.94
2023-01-07T09:43:25.295Z,100266.22
2023-01-07T09:48:35.349Z,100263.59
2023-01-07T09:53:45.967Z,100260.28
2023-01-07T09:58:48.367Z,100246.63
2023-01-07T10:04:17.529Z,100249.09
2023-01-07T10:09:37.658Z,100243.31
2023-01-07T10:14:51.632Z,100235.69
2023-01-07T10:19:56.451Z,100225.13
2023-01-07T10:25:00.623Z,100225.97
2023-01-07T10:30:03.500Z,100222.03
2023-01-07T10:35:07.310Z,100213.09
2023-01-07T10:40:41.779Z,100206.69
2023-01-07T10:46:10.294Z,100200.88
2023-01-07T10:51:30.657Z,100194.81
2023-01-07T10:56:37.197Z,100186.63
2023-01-07T11:01:39.495Z,100176.78
2023-01-07T11:06:44.964Z,100164.31
2023-01-07T11:11:46.376Z,100149.09
2023-01-07T11:17:02.555Z,100143.25
2023-01-07T11:22:03.982Z,100134.81
2023-01-07T11:27:13.639Z,100119.72
2023-01-07T11:32:21.132Z,100123.31
2023-01-07T11:37:44.120Z,100120.47
2023-01-07T11:42:51.487Z,100105.59
2023-01-07T11:48:00.289Z,100087.78
2023-01-07T11:53:07.714Z,100093.38
2023-01-07T11:58:28.191Z,100088.06
2023-01-07T12:03:30.661Z,100084.03
2023-01-07T12:08:32.042Z,100085.88
2023-01-07T12:13:34.241Z,100078.28
2023-01-07T12:19:03.525Z,100068.56
2023-01-07T12:24:15.549Z,100073.56
2023-01-07T12:29:39.186Z,100063.94
2023-01-07T12:35:15.048Z,100056.41
2023-01-07T12:40:27.437Z,100042.53
2023-01-07T12:46:00.803Z,100037.44
2023-01-07T12:51:04.627Z,100031.88
2023-01-07T12:56:20.871Z,100022.03
2023-01-07T13:01:31.729Z,100016.53
2023-01-07T13:06:33.012Z,100010.81
2023-01-07T13:11:54.108Z,100011.53
2023-01-07T13:16:59.824Z,100014.91
2023-01-07T13:22:01.084Z,100000.41
2023-01-07T13:27:18.795Z,100005.47
2023-01-07T13:32:36.114Z,99995.72
2023-01-07T13:37:40.382Z,99996.22
2023-01-07T13:42:48.922Z,99996.47
2023-01-07T13:47:54.571Z,99991.72
2023-01-07T13:53:02.490Z,99999.09
2023-01-07T13:58:33.582Z,100000.63
2023-01-07T14:03:45.061Z,99989.09
2023-01-07T14:08:57.582Z,99980.31
2023-01-07T14:14:29.628Z,99982.59
2023-01-07T14:19:43.348Z,99973.56
2023-01-07T14:24:52.145Z,99966.41
2023-01-07T14:29:56.508Z,99968.91
2023-01-07T14:35:01.981Z,99951.66
2023-01-07T14:40:34.389Z,99955.03
2023-01-07T14:45:41.852Z,99951.00
2023-01-07T14:50:49.060Z,99937.44
2023-01-07T14:56:12.197Z,99940.50
2023-01-07T15:01:43.484Z,99936.03
2023-01-07T15:06:44.971Z,99930.13
2023-01-07T15:12:05.053Z,99926.91
2023-01-07T15:17:06.877Z,99932.19
2023-01-07T15:22:14.240Z,99928.19
2023-01-07T15:27:21.133Z,99923.19
2023-01-07T15:32:40.981Z,99925.59
2023-01-07T15:37:49.907Z,99926.28
2023-01-07T15:42:52.967Z,99922.72
2023-01-07T15:48:04.952Z,99918.41
2023-01-07T15:53:12.715Z,99919.63
2023-01-07T15:58:34.867Z,99916.78
2023-01-07T16:03:37.737Z,99922.50
2023-01-07T16:08:39.115Z,99919.16
2023-01-07T16:13:40.597Z,99901.44
2023-01-07T16:18:42.535Z,99895.63
2023-01-07T16:23:45.625Z,99894.22
2023-01-07T16:28:58.914Z,99886.03
2023-01-07T16:34:00.462Z,99866.97
2023-01-07T16:39:05.910Z,99867.81
2023-01-07T16:44:10.290Z,99858.69
2023-01-07T16:49:11.501Z,99864.56
2023-01-07T16:54:24.875Z,99860.88
2023-01-07T16:59:28.613Z,99856.88
2023-01-07T17:04:30.225Z,99857.28
2023-01-07T17:09:35.351Z,99842.22
2023-01-07T17:14:49.132Z,99833.19
2023-01-07T17:19:57.247Z,99833.53
2023-01-07T17:25:12.063Z,99827.09
2023-01-07T17:30:18.353Z,99826.41
2023-01-07T17:35:21.314Z,99826.91
2023-01-07T17:40:22.714Z,99825.00
2023-01-07T17:45:24.132Z,99813.66
2023-01-07T17:50:35.841Z,99815.84
2023-01-07T17:55:37.228Z,99810.53
2023-01-07T18:00:40.765Z,99816.47
2023-01-07T18:05:42.204Z,99814.44
2023-01-07T18:11:02.165Z,99812.84
2023-01-07T18:16:03.656Z,99807.63
2023-01-07T18:21:05.208Z,99795.94
2023-01-07T18:26:06.632Z,99797.94
2023-01-07T18:31:08.206Z,99788.75
2023-01-07T18:36:10.466Z,99792.31
2023-01-07T18:41:11.858Z,99788.19
2023-01-07T18:46:13.576Z,99789.72
2023-01-07T18:51:15.706Z,99786.50
2023-01-07T18:56:17.165Z,99784.13
2023-01-07T19:01:18.697Z,99791.13
2023-01-07T19:06:20.179Z,99781.47
2023-01-07T19:11:21.582Z,99785.94
2023-01-07T19:16:23.100Z,99781.16
2023-01-07T19:21:26.474Z,99779.22
2023-01-07T19:26:28.166Z,99774.69
2023-01-07T19:31:29.604Z,99774.69
2023-01-07T19:36:31.453Z,99781.38
2023-01-07T19:41:34.003Z,99787.69
2023-01-07T19:46:37.474Z,99784.03
2023-01-07T19:51:39.682Z,99773.84
2023-01-07T19:56:41.191Z,99765.75
2023-01-07T20:01:44.507Z,99762.25
2023-01-07T20:06:47.296Z,99752.66
2023-01-07T20:11:48.874Z,99751.41
2023-01-07T20:16:50.429Z,99742.16
2023-01-07T20:21:51.834Z,99731.88
2023-01-07T20:26:54.697Z,99729.50
2023-01-07T20:31:56.368Z,99717.31
2023-01-07T20:36:57.844Z,99716.19
2023-01-07T20:41:59.235Z,99719.31
2023-01-07T20:47:01.093Z,99714.28
2023-01-07T20:52:02.488Z,99713.38
2023-01-07T20:57:04.062Z,99712.69
2023-01-07T21:02:05.767Z,99710.78
2023-01-07T21:07:07.310Z,99703.00
2023-01-07T21:12:08.707Z,99704.66
2023-01-07T21:17:10.080Z,99683.22
2023-01-07T21:22:11.471Z,99672.56
2023-01-07T21:27:12.847Z,99677.84
2023-01-07T21:32:14.218Z,99659.03
2023-01-07T21:37:15.654Z,99664.69
2023-01-07T21:42:17.087Z,99661.06
2023-01-07T21:47:18.473Z,99658.41
2023-01-07T21:52:19.850Z,99653.28
2023-01-07T21:57:21.301Z,99644.81
2023-01-07T22:02:22.693Z,99640.63
2023-01-07T22:07:24.150Z,99643.09
2023-01-07T22:12:25.689Z,99639.13
2023-01-07T22:17:27.124Z,99645.88
2023-01-07T22:22:28.498Z,99643.34
2023-01-07T22:27:29.870Z,99639.50
2023-01-07T22:32:31.253Z,99642.34
2023-01-07T22:37:32.700Z,99619.50
2023-01-07T22:42:39.367Z,99618.84
2023-01-07T22:47:42.162Z,99623.91
2023-01-07T22:52:43.593Z,99613.59
2023-01-07T22:57:44.959Z,99599.28
2023-01-07T23:02:46.361Z,99590.44
2023-01-07T23:07:47.750Z,99598.56
2023-01-07T23:12:49.135Z,99593.34
2023-01-07T23:17:50.545Z,99596.16
2023-01-07T23:22:51.935Z,99605.19
2023-01-07T23:27:53.315Z,99592.03
2023-01-07T23:32:54.695Z,99592.53
2023-01-07T23:37:56.114Z,99595.59
2023-01-07T23:42:57.858Z,99574.63
2023-01-07T23:47:59.269Z,99564.44
2023-01-07T23:53:00.681Z,99547.16
2023-01-07T23:58:02.746Z,99547.75
